sensor_id;sensor_type;location;lat;lon;timestamp;temperature;humidity
17659;DHT22;8948;51.534;8.262;2022-12-07T00:00:34;4.60;84.10
17659;DHT22;8948;51.534;8.262;2022-12-07T00:05:35;4.60;84.20
17659;DHT22;8948;51.534;8.262;2022-12-07T00:10:35;4.60;84.20
17659;DHT22;8948;51.534;8.262;2022-12-07T00:15:36;4.60;84.30
17659;DHT22;8948;51.534;8.262;2022-12-07T00:20:36;4.60;84.20
17659;DHT22;8948;51.534;8.262;2022-12-07T00:25:37;4.70;84.00
17659;DHT22;8948;51.534;8.262;2022-12-07T00:30:38;4.60;84.10
17659;DHT22;8948;51.534;8.262;2022-12-07T00:35:38;4.70;84.30
17659;DHT22;8948;51.534;8.262;2022-12-07T00:40:39;4.60;84.50
17659;DHT22;8948;51.534;8.262;2022-12-07T00:45:43;4.70;84.20
17659;DHT22;8948;51.534;8.262;2022-12-07T00:50:44;4.70;84.40
17659;DHT22;8948;51.534;8.262;2022-12-07T00:55:46;4.70;84.20
17659;DHT22;8948;51.534;8.262;2022-12-07T01:00:46;4.70;83.90
17659;DHT22;8948;51.534;8.262;2022-12-07T01:05:51;4.70;83.90
17659;DHT22;8948;51.534;8.262;2022-12-07T01:11:00;4.80;83.60
17659;DHT22;8948;51.534;8.262;2022-12-07T01:16:04;4.80;83.50
17659;DHT22;8948;51.534;8.262;2022-12-07T01:21:18;4.80;83.40
17659;DHT22;8948;51.534;8.262;2022-12-07T01:26:23;4.80;83.20
17659;DHT22;8948;51.534;8.262;2022-12-07T01:31:25;4.80;83.20
17659;DHT22;8948;51.534;8.262;2022-12-07T01:36:32;4.80;83.20
17659;DHT22;8948;51.534;8.262;2022-12-07T01:41:36;4.80;83.20
17659;DHT22;8948;51.534;8.262;2022-12-07T01:46:40;4.90;83.30
17659;DHT22;8948;51.534;8.262;2022-12-07T01:51:43;4.90;83.10
17659;DHT22;8948;51.534;8.262;2022-12-07T01:56:50;4.90;83.30
17659;DHT22;8948;51.534;8.262;2022-12-07T02:01:53;4.80;83.40
17659;DHT22;8948;51.534;8.262;2022-12-07T02:06:54;4.90;83.50
17659;DHT22;8948;51.534;8.262;2022-12-07T02:11:56;4.90;83.40
17659;DHT22;8948;51.534;8.262;2022-12-07T02:27:43;4.90;83.80
17659;DHT22;8948;51.534;8.262;2022-12-07T02:43:38;4.90;83.90
17659;DHT22;8948;51.534;8.262;2022-12-07T02:48:30;4.90;83.60
17659;DHT22;8948;51.534;8.262;2022-12-07T02:53:34;5.00;83.50
17659;DHT22;8948;51.534;8.262;2022-12-07T03:04:37;4.90;83.70
17659;DHT22;8948;51.534;8.262;2022-12-07T03:09:44;5.00;83.30
17659;DHT22;8948;51.534;8.262;2022-12-07T03:14:52;4.90;83.50
17659;DHT22;8948;51.534;8.262;2022-12-07T03:19:59;4.90;83.50
17659;DHT22;8948;51.534;8.262;2022-12-07T03:25:06;4.90;83.40
17659;DHT22;8948;51.534;8.262;2022-12-07T03:30:12;4.90;83.40
17659;DHT22;8948;51.534;8.262;2022-12-07T03:35:20;4.90;83.30
17659;DHT22;8948;51.534;8.262;2022-12-07T03:40:32;4.90;83.10
17659;DHT22;8948;51.534;8.262;2022-12-07T03:45:43;4.80;83.40
17659;DHT22;8948;51.534;8.262;2022-12-07T03:50:51;4.80;83.40
17659;DHT22;8948;51.534;8.262;2022-12-07T03:55:53;4.80;83.30
17659;DHT22;8948;51.534;8.262;2022-12-07T04:00:55;4.80;83.20
17659;DHT22;8948;51.534;8.262;2022-12-07T04:05:56;4.80;83.00
17659;DHT22;8948;51.534;8.262;2022-12-07T04:10:58;4.80;82.90
17659;DHT22;8948;51.534;8.262;2022-12-07T04:15:58;4.80;82.80
17659;DHT22;8948;51.534;8.262;2022-12-07T04:20:59;4.80;82.80
17659;DHT22;8948;51.534;8.262;2022-12-07T04:25:59;4.80;82.70
17659;DHT22;8948;51.534;8.262;2022-12-07T04:31:00;4.70;82.30
17659;DHT22;8948;51.534;8.262;2022-12-07T04:36:00;4.70;82.10
17659;DHT22;8948;51.534;8.262;2022-12-07T04:41:08;4.70;82.40
17659;DHT22;8948;51.534;8.262;2022-12-07T04:46:08;4.70;82.20
17659;DHT22;8948;51.534;8.262;2022-12-07T04:51:09;4.70;82.30
17659;DHT22;8948;51.534;8.262;2022-12-07T04:56:09;4.70;81.80
17659;DHT22;8948;51.534;8.262;2022-12-07T05:01:10;4.70;81.80
17659;DHT22;8948;51.534;8.262;2022-12-07T05:06:12;4.70;82.20
17659;DHT22;8948;51.534;8.262;2022-12-07T05:11:13;4.70;82.00
17659;DHT22;8948;51.534;8.262;2022-12-07T05:16:35;4.70;81.80
17659;DHT22;8948;51.534;8.262;2022-12-07T05:21:36;4.70;82.20
17659;DHT22;8948;51.534;8.262;2022-12-07T05:26:37;4.60;82.20
17659;DHT22;8948;51.534;8.262;2022-12-07T05:31:37;4.80;84.50
17659;DHT22;8948;51.534;8.262;2022-12-07T05:36:38;5.10;81.00
17659;DHT22;8948;51.534;8.262;2022-12-07T05:41:38;5.20;83.70
17659;DHT22;8948;51.534;8.262;2022-12-07T05:46:58;5.30;84.20
17659;DHT22;8948;51.534;8.262;2022-12-07T05:51:59;5.10;79.70
17659;DHT22;8948;51.534;8.262;2022-12-07T05:57:00;4.90;80.20
17659;DHT22;8948;51.534;8.262;2022-12-07T06:02:03;4.70;80.30
17659;DHT22;8948;51.534;8.262;2022-12-07T06:07:05;4.80;80.60
17659;DHT22;8948;51.534;8.262;2022-12-07T06:12:06;4.70;80.60
17659;DHT22;8948;51.534;8.262;2022-12-07T06:17:25;4.70;80.50
17659;DHT22;8948;51.534;8.262;2022-12-07T06:22:25;4.60;80.30
17659;DHT22;8948;51.534;8.262;2022-12-07T06:27:26;4.60;80.60
17659;DHT22;8948;51.534;8.262;2022-12-07T06:32:27;4.60;80.30
17659;DHT22;8948;51.534;8.262;2022-12-07T06:37:27;4.50;80.70
17659;DHT22;8948;51.534;8.262;2022-12-07T06:42:28;4.50;80.90
17659;DHT22;8948;51.534;8.262;2022-12-07T06:47:28;4.50;81.00
17659;DHT22;8948;51.534;8.262;2022-12-07T06:52:30;4.60;80.50
17659;DHT22;8948;51.534;8.262;2022-12-07T06:57:30;4.50;80.60
17659;DHT22;8948;51.534;8.262;2022-12-07T07:02:31;4.60;80.90
17659;DHT22;8948;51.534;8.262;2022-12-07T07:07:32;4.60;80.70
17659;DHT22;8948;51.534;8.262;2022-12-07T07:12:32;4.60;80.60
17659;DHT22;8948;51.534;8.262;2022-12-07T07:17:33;4.50;80.40
17659;DHT22;8948;51.534;8.262;2022-12-07T07:22:33;4.50;80.70
17659;DHT22;8948;51.534;8.262;2022-12-07T07:27:34;4.50;80.30
17659;DHT22;8948;51.534;8.262;2022-12-07T07:32:35;4.50;80.30
17659;DHT22;8948;51.534;8.262;2022-12-07T07:37:35;4.50;80.30
17659;DHT22;8948;51.534;8.262;2022-12-07T07:42:36;4.50;80.20
17659;DHT22;8948;51.534;8.262;2022-12-07T07:47:36;4.50;80.00
17659;DHT22;8948;51.534;8.262;2022-12-07T07:52:37;4.50;80.30
17659;DHT22;8948;51.534;8.262;2022-12-07T07:57:39;4.40;79.90
17659;DHT22;8948;51.534;8.262;2022-12-07T08:02:41;4.50;79.50
17659;DHT22;8948;51.534;8.262;2022-12-07T08:07:43;4.50;80.00
17659;DHT22;8948;51.534;8.262;2022-12-07T08:12:44;4.50;79.60
17659;DHT22;8948;51.534;8.262;2022-12-07T08:18:03;4.50;79.70
17659;DHT22;8948;51.534;8.262;2022-12-07T08:23:04;4.50;79.20
17659;DHT22;8948;51.534;8.262;2022-12-07T08:28:05;4.50;79.20
17659;DHT22;8948;51.534;8.262;2022-12-07T08:33:05;4.60;79.20
17659;DHT22;8948;51.534;8.262;2022-12-07T08:38:06;4.60;79.20
17659;DHT22;8948;51.534;8.262;2022-12-07T08:43:06;4.60;79.00
17659;DHT22;8948;51.534;8.262;2022-12-07T08:48:09;4.70;78.70
17659;DHT22;8948;51.534;8.262;2022-12-07T08:53:10;4.70;78.50
17659;DHT22;8948;51.534;8.262;2022-12-07T08:58:11;4.80;78.40
17659;DHT22;8948;51.534;8.262;2022-12-07T09:03:12;4.80;78.40
17659;DHT22;8948;51.534;8.262;2022-12-07T09:08:12;4.80;78.30
17659;DHT22;8948;51.534;8.262;2022-12-07T09:13:13;4.90;78.10
17659;DHT22;8948;51.534;8.262;2022-12-07T09:18:14;4.90;78.30
17659;DHT22;8948;51.534;8.262;2022-12-07T09:23:15;4.90;78.00
17659;DHT22;8948;51.534;8.262;2022-12-07T09:28:15;4.90;77.90
17659;DHT22;8948;51.534;8.262;2022-12-07T09:33:16;4.90;78.10
17659;DHT22;8948;51.534;8.262;2022-12-07T09:38:17;5.00;77.80
17659;DHT22;8948;51.534;8.262;2022-12-07T09:43:21;5.00;78.40
17659;DHT22;8948;51.534;8.262;2022-12-07T09:48:27;5.00;77.90
17659;DHT22;8948;51.534;8.262;2022-12-07T09:53:37;4.90;77.70
17659;DHT22;8948;51.534;8.262;2022-12-07T09:58:38;5.00;77.30
17659;DHT22;8948;51.534;8.262;2022-12-07T10:03:40;5.10;77.00
17659;DHT22;8948;51.534;8.262;2022-12-07T10:08:42;5.30;76.90
17659;DHT22;8948;51.534;8.262;2022-12-07T10:13:49;5.40;76.60
17659;DHT22;8948;51.534;8.262;2022-12-07T10:18:51;5.50;76.50
17659;DHT22;8948;51.534;8.262;2022-12-07T10:34:23;5.60;76.20
17659;DHT22;8948;51.534;8.262;2022-12-07T10:39:24;5.60;75.80
17659;DHT22;8948;51.534;8.262;2022-12-07T10:44:30;5.60;75.90
17659;DHT22;8948;51.534;8.262;2022-12-07T11:11:41;5.50;75.60
17659;DHT22;8948;51.534;8.262;2022-12-07T11:17:13;5.50;75.60
17659;DHT22;8948;51.534;8.262;2022-12-07T11:22:26;5.60;75.70
17659;DHT22;8948;51.534;8.262;2022-12-07T11:27:37;5.60;75.30
17659;DHT22;8948;51.534;8.262;2022-12-07T11:33:04;5.70;75.20
17659;DHT22;8948;51.534;8.262;2022-12-07T11:38:15;5.70;75.10
17659;DHT22;8948;51.534;8.262;2022-12-07T11:48:28;5.80;74.30
17659;DHT22;8948;51.534;8.262;2022-12-07T11:53:33;5.70;74.70
17659;DHT22;8948;51.534;8.262;2022-12-07T11:58:44;5.70;75.00
17659;DHT22;8948;51.534;8.262;2022-12-07T12:03:50;5.70;75.10
17659;DHT22;8948;51.534;8.262;2022-12-07T12:14:18;5.70;75.00
17659;DHT22;8948;51.534;8.262;2022-12-07T12:24:33;5.70;74.90
17659;DHT22;8948;51.534;8.262;2022-12-07T12:29:39;5.70;74.80
17659;DHT22;8948;51.534;8.262;2022-12-07T12:34:42;5.60;74.80
17659;DHT22;8948;51.534;8.262;2022-12-07T12:45:32;5.70;74.80
17659;DHT22;8948;51.534;8.262;2022-12-07T12:50:37;5.70;74.90
17659;DHT22;8948;51.534;8.262;2022-12-07T13:00:41;5.80;74.50
17659;DHT22;8948;51.534;8.262;2022-12-07T13:05:42;5.70;74.60
17659;DHT22;8948;51.534;8.262;2022-12-07T13:10:46;5.70;74.60
17659;DHT22;8948;51.534;8.262;2022-12-07T13:21:00;5.60;75.00
17659;DHT22;8948;51.534;8.262;2022-12-07T13:26:03;5.60;75.20
17659;DHT22;8948;51.534;8.262;2022-12-07T13:31:13;5.60;75.00
17659;DHT22;8948;51.534;8.262;2022-12-07T13:36:22;5.60;74.60
17659;DHT22;8948;51.534;8.262;2022-12-07T13:41:25;5.70;74.60
17659;DHT22;8948;51.534;8.262;2022-12-07T13:51:42;5.70;74.20
17659;DHT22;8948;51.534;8.262;2022-12-07T13:56:43;5.60;73.70
17659;DHT22;8948;51.534;8.262;2022-12-07T14:01:48;5.60;73.90
17659;DHT22;8948;51.534;8.262;2022-12-07T14:06:52;5.60;74.20
17659;DHT22;8948;51.534;8.262;2022-12-07T14:11:55;5.60;73.70
17659;DHT22;8948;51.534;8.262;2022-12-07T14:17:02;5.60;73.50
17659;DHT22;8948;51.534;8.262;2022-12-07T14:22:34;5.50;73.90
17659;DHT22;8948;51.534;8.262;2022-12-07T14:33:02;5.60;73.60
17659;DHT22;8948;51.534;8.262;2022-12-07T14:38:03;5.60;73.60
17659;DHT22;8948;51.534;8.262;2022-12-07T14:43:15;5.60;73.60
17659;DHT22;8948;51.534;8.262;2022-12-07T14:48:16;5.60;73.40
17659;DHT22;8948;51.534;8.262;2022-12-07T14:53:18;5.50;73.70
17659;DHT22;8948;51.534;8.262;2022-12-07T14:58:22;5.50;74.00
17659;DHT22;8948;51.534;8.262;2022-12-07T15:03:23;5.40;73.80
17659;DHT22;8948;51.534;8.262;2022-12-07T15:08:24;5.30;74.20
17659;DHT22;8948;51.534;8.262;2022-12-07T15:13:25;5.20;74.20
17659;DHT22;8948;51.534;8.262;2022-12-07T15:18:44;5.20;74.20
17659;DHT22;8948;51.534;8.262;2022-12-07T15:23:46;5.10;74.40
17659;DHT22;8948;51.534;8.262;2022-12-07T15:28:47;5.10;74.20
17659;DHT22;8948;51.534;8.262;2022-12-07T15:33:47;5.00;74.30
17659;DHT22;8948;51.534;8.262;2022-12-07T15:38:48;5.00;74.40
17659;DHT22;8948;51.534;8.262;2022-12-07T15:43:49;4.90;74.40
17659;DHT22;8948;51.534;8.262;2022-12-07T15:49:12;4.90;74.60
17659;DHT22;8948;51.534;8.262;2022-12-07T15:54:23;4.90;74.70
17659;DHT22;8948;51.534;8.262;2022-12-07T15:59:25;4.90;74.70
17659;DHT22;8948;51.534;8.262;2022-12-07T16:04:28;4.90;74.90
17659;DHT22;8948;51.534;8.262;2022-12-07T16:09:29;4.90;74.50
17659;DHT22;8948;51.534;8.262;2022-12-07T16:14:30;4.90;74.60
17659;DHT22;8948;51.534;8.262;2022-12-07T16:19:34;4.90;74.60
17659;DHT22;8948;51.534;8.262;2022-12-07T16:29:42;4.90;74.90
17659;DHT22;8948;51.534;8.262;2022-12-07T16:34:42;4.80;74.80
17659;DHT22;8948;51.534;8.262;2022-12-07T16:39:43;4.80;75.00
17659;DHT22;8948;51.534;8.262;2022-12-07T16:44:44;4.80;75.10
17659;DHT22;8948;51.534;8.262;2022-12-07T16:49:44;4.80;75.10
17659;DHT22;8948;51.534;8.262;2022-12-07T16:54:45;4.80;75.00
17659;DHT22;8948;51.534;8.262;2022-12-07T16:59:46;4.80;75.30
17659;DHT22;8948;51.534;8.262;2022-12-07T17:04:46;4.80;75.30
17659;DHT22;8948;51.534;8.262;2022-12-07T17:09:47;4.80;75.50
17659;DHT22;8948;51.534;8.262;2022-12-07T17:14:48;4.70;75.90
17659;DHT22;8948;51.534;8.262;2022-12-07T17:20:07;4.80;75.80
17659;DHT22;8948;51.534;8.262;2022-12-07T17:25:07;4.70;76.10
17659;DHT22;8948;51.534;8.262;2022-12-07T17:30:10;4.80;76.10
17659;DHT22;8948;51.534;8.262;2022-12-07T17:35:11;4.70;76.50
17659;DHT22;8948;51.534;8.262;2022-12-07T17:40:12;4.70;76.60
17659;DHT22;8948;51.534;8.262;2022-12-07T17:45:13;4.80;76.50
17659;DHT22;8948;51.534;8.262;2022-12-07T17:50:13;4.80;76.50
17659;DHT22;8948;51.534;8.262;2022-12-07T17:55:14;4.80;76.50
17659;DHT22;8948;51.534;8.262;2022-12-07T18:00:15;4.80;77.00
17659;DHT22;8948;51.534;8.262;2022-12-07T18:05:15;4.80;77.00
17659;DHT22;8948;51.534;8.262;2022-12-07T18:10:16;4.80;76.80
17659;DHT22;8948;51.534;8.262;2022-12-07T18:15:17;4.80;77.40
17659;DHT22;8948;51.534;8.262;2022-12-07T18:20:17;4.80;77.50
17659;DHT22;8948;51.534;8.262;2022-12-07T18:25:18;4.80;77.30
17659;DHT22;8948;51.534;8.262;2022-12-07T18:30:18;4.80;77.00
17659;DHT22;8948;51.534;8.262;2022-12-07T18:35:19;4.80;76.60
17659;DHT22;8948;51.534;8.262;2022-12-07T18:40:19;4.90;76.60
17659;DHT22;8948;51.534;8.262;2022-12-07T18:45:20;4.90;76.30
17659;DHT22;8948;51.534;8.262;2022-12-07T18:50:21;4.80;76.10
17659;DHT22;8948;51.534;8.262;2022-12-07T18:55:21;4.80;76.20
17659;DHT22;8948;51.534;8.262;2022-12-07T19:00:23;4.80;76.10
17659;DHT22;8948;51.534;8.262;2022-12-07T19:05:26;4.90;76.20
17659;DHT22;8948;51.534;8.262;2022-12-07T19:10:26;4.90;75.90
17659;DHT22;8948;51.534;8.262;2022-12-07T19:15:27;4.80;75.90
17659;DHT22;8948;51.534;8.262;2022-12-07T19:20:27;4.80;75.60
17659;DHT22;8948;51.534;8.262;2022-12-07T19:25:28;4.80;76.00
17659;DHT22;8948;51.534;8.262;2022-12-07T19:30:28;4.70;76.50
17659;DHT22;8948;51.534;8.262;2022-12-07T19:35:29;4.70;76.70
17659;DHT22;8948;51.534;8.262;2022-12-07T19:40:29;4.70;76.90
17659;DHT22;8948;51.534;8.262;2022-12-07T19:45:30;4.70;77.10
17659;DHT22;8948;51.534;8.262;2022-12-07T19:50:33;4.60;77.00
17659;DHT22;8948;51.534;8.262;2022-12-07T19:55:38;4.70;76.50
17659;DHT22;8948;51.534;8.262;2022-12-07T20:00:39;4.70;76.30
17659;DHT22;8948;51.534;8.262;2022-12-07T20:05:40;4.70;76.30
17659;DHT22;8948;51.534;8.262;2022-12-07T20:10:41;4.70;76.10
17659;DHT22;8948;51.534;8.262;2022-12-07T20:15:42;4.70;76.10
17659;DHT22;8948;51.534;8.262;2022-12-07T20:20:55;4.70;76.10
17659;DHT22;8948;51.534;8.262;2022-12-07T20:26:02;4.70;76.20
17659;DHT22;8948;51.534;8.262;2022-12-07T20:31:03;4.70;76.00
17659;DHT22;8948;51.534;8.262;2022-12-07T20:36:04;4.70;76.00
17659;DHT22;8948;51.534;8.262;2022-12-07T20:41:07;4.70;76.30
17659;DHT22;8948;51.534;8.262;2022-12-07T20:46:28;4.60;76.50
17659;DHT22;8948;51.534;8.262;2022-12-07T20:51:29;4.60;76.60
17659;DHT22;8948;51.534;8.262;2022-12-07T20:56:30;4.60;76.50
17659;DHT22;8948;51.534;8.262;2022-12-07T21:01:31;4.60;76.60
17659;DHT22;8948;51.534;8.262;2022-12-07T21:06:32;4.60;76.70
17659;DHT22;8948;51.534;8.262;2022-12-07T21:11:33;4.60;76.80
17659;DHT22;8948;51.534;8.262;2022-12-07T21:16:33;4.60;76.20
17659;DHT22;8948;51.534;8.262;2022-12-07T21:21:34;4.50;75.90
17659;DHT22;8948;51.534;8.262;2022-12-07T21:26:35;4.60;75.80
17659;DHT22;8948;51.534;8.262;2022-12-07T21:31:36;4.50;76.20
17659;DHT22;8948;51.534;8.262;2022-12-07T21:36:37;4.50;76.30
17659;DHT22;8948;51.534;8.262;2022-12-07T21:41:38;4.50;76.40
17659;DHT22;8948;51.534;8.262;2022-12-07T21:46:39;4.50;76.40
17659;DHT22;8948;51.534;8.262;2022-12-07T21:51:41;4.50;76.20
17659;DHT22;8948;51.534;8.262;2022-12-07T21:56:42;4.50;76.40
17659;DHT22;8948;51.534;8.262;2022-12-07T22:01:44;4.50;76.30
17659;DHT22;8948;51.534;8.262;2022-12-07T22:06:46;4.50;76.30
17659;DHT22;8948;51.534;8.262;2022-12-07T22:11:47;4.50;76.40
17659;DHT22;8948;51.534;8.262;2022-12-07T22:16:49;4.60;76.50
17659;DHT22;8948;51.534;8.262;2022-12-07T22:21:49;4.50;76.90
17659;DHT22;8948;51.534;8.262;2022-12-07T22:26:50;4.50;76.80
17659;DHT22;8948;51.534;8.262;2022-12-07T22:31:50;4.50;77.00
17659;DHT22;8948;51.534;8.262;2022-12-07T22:36:51;4.50;77.00
17659;DHT22;8948;51.534;8.262;2022-12-07T22:41:51;4.40;77.20
17659;DHT22;8948;51.534;8.262;2022-12-07T22:46:52;4.40;77.30
17659;DHT22;8948;51.534;8.262;2022-12-07T22:51:52;4.50;77.20
17659;DHT22;8948;51.534;8.262;2022-12-07T22:56:53;4.50;77.10
17659;DHT22;8948;51.534;8.262;2022-12-07T23:01:54;4.50;76.90
17659;DHT22;8948;51.534;8.262;2022-12-07T23:06:57;4.50;76.80
17659;DHT22;8948;51.534;8.262;2022-12-07T23:11:57;4.60;76.60
17659;DHT22;8948;51.534;8.262;2022-12-07T23:17:16;4.60;76.60
17659;DHT22;8948;51.534;8.262;2022-12-07T23:22:17;4.60;76.70
17659;DHT22;8948;51.534;8.262;2022-12-07T23:27:18;4.60;76.40
17659;DHT22;8948;51.534;8.262;2022-12-07T23:32:18;4.60;76.40
17659;DHT22;8948;51.534;8.262;2022-12-07T23:37:19;4.60;76.30
17659;DHT22;8948;51.534;8.262;2022-12-07T23:42:19;4.50;76.20
17659;DHT22;8948;51.534;8.262;2022-12-07T23:47:20;4.50;76.30
17659;DHT22;8948;51.534;8.262;2022-12-07T23:52:20;4.50;76.50
17659;DHT22;8948;51.534;8.262;2022-12-07T23:57:21;4.50;76.20
